Time,TemperatureF,DewpointF,PressureIn,WindDirection,WindDirectionDegrees,WindSpeedMPH,WindSpeedGustMPH,Humidity,HourlyPrecipIn,Conditions,Clouds,dailyrainin,SolarRadiationWatts/m^2,SoftwareType,DateUTC
2013-02-13 00:00:00,37.2,33.7,30.24,North,-999,0.0,0.0,87,0.00,,,-99.99,0,WeatherLink 5.7,2013-02-13 08:00:00,
2013-02-13 00:03:00,37.9,34.1,30.25,NNE,27,0.0,0.0,86,0.00,,,0.00,,Wunderground v.1.13,2013-02-13 08:03:00,
2013-02-13 00:13:00,37.9,34.1,30.25,NNE,27,0.0,0.0,86,0.00,,,0.00,,Wunderground v.1.13,2013-02-13 08:13:00,
2013-02-13 00:15:00,36.9,33.7,30.24,North,-999,0.0,0.0,88,0.00,,,-99.99,0,WeatherLink 5.7,2013-02-13 08:15:00,
2013-02-13 00:23:00,37.8,34.3,30.24,NNE,27,0.0,0.0,87,0.00,,,0.00,,Wunderground v.1.13,2013-02-13 08:23:00,
2013-02-13 00:30:00,36.6,33.7,30.24,North,-999,0.0,0.0,89,0.00,,,-99.99,0,WeatherLink 5.7,2013-02-13 08:30:00,
2013-02-13 00:33:00,37.6,34.1,30.24,NNE,27,0.0,0.0,87,0.00,,,0.00,,Wunderground v.1.13,2013-02-13 08:33:00,
2013-02-13 00:38:00,37.6,34.1,30.24,NNE,27,0.0,0.0,87,0.00,,,0.00,,Wunderground v.1.13,2013-02-13 08:38:00,
2013-02-13 00:45:00,36.3,33.6,30.24,North,-999,0.0,0.0,90,0.00,,,-99.99,0,WeatherLink 5.7,2013-02-13 08:45:00,
2013-02-13 00:48:00,37.5,34.0,30.24,NNE,27,0.0,0.0,87,0.00,,,0.00,,Wunderground v.1.13,2013-02-13 08:48:00,
2013-02-13 00:53:00,37.3,33.8,30.24,NNE,27,0.0,0.0,87,0.00,,,0.00,,Wunderground v.1.13,2013-02-13 08:53:00,
2013-02-13 00:58:00,37.3,33.8,30.24,NNE,27,0.0,0.0,87,0.00,,,0.00,,Wunderground v.1.13,2013-02-13 08:58:00,
2013-02-13 01:00:00,36.2,33.5,30.24,North,-999,0.0,0.0,90,0.00,,,-99.99,0,WeatherLink 5.7,2013-02-13 09:00:00,
2013-02-13 01:03:00,37.2,33.7,30.24,NNE,27,0.0,0.0,87,0.00,,,0.00,,Wunderground v.1.13,2013-02-13 09:03:00,
2013-02-13 01:13:00,36.9,33.7,30.24,NNE,27,0.0,0.0,88,0.00,,,0.00,,Wunderground v.1.13,2013-02-13 09:13:00,
2013-02-13 01:15:00,36.0,33.4,30.24,North,-999,0.0,0.0,90,0.00,,,-99.99,0,WeatherLink 5.7,2013-02-13 09:15:00,
2013-02-13 01:23:00,36.8,33.6,30.24,NNE,27,0.0,0.0,88,0.00,,,0.00,,Wunderground v.1.13,2013-02-13 09:23:00,
2013-02-13 01:30:00,35.9,33.5,30.24,North,-999,0.0,0.0,91,0.00,,,-99.99,0,WeatherLink 5.7,2013-02-13 09:30:00,
2013-02-13 01:33:00,36.5,33.6,30.24,NNE,27,0.0,0.0,89,0.00,,,0.00,,Wunderground v.1.13,2013-02-13 09:33:00,
2013-02-13 01:38:00,36.5,33.6,30.24,NNE,27,0.0,0.0,89,0.00,,,0.00,,Wunderground v.1.13,2013-02-13 09:38:00,
2013-02-13 01:43:00,36.3,33.4,30.24,NNE,27,0.0,0.0,89,0.00,,,0.00,,Wunderground v.1.13,2013-02-13 09:43:00,
2013-02-13 01:45:00,35.6,33.2,30.23,North,-999,0.0,0.0,91,0.00,,,-99.99,0,WeatherLink 5.7,2013-02-13 09:45:00,
2013-02-13 01:53:00,36.3,33.6,30.24,NNE,27,0.0,0.0,90,0.00,,,0.00,,Wunderground v.1.13,2013-02-13 09:53:00,
2013-02-13 01:58:00,36.2,33.5,30.24,NNE,27,0.0,0.0,90,0.00,,,0.00,,Wunderground v.1.13,2013-02-13 09:58:00,
2013-02-13 02:00:00,35.3,32.9,30.23,North,-999,0.0,0.0,91,0.00,,,-99.99,0,WeatherLink 5.7,2013-02-13 10:00:00,
2013-02-13 02:08:00,36.0,33.4,30.24,NNE,27,0.0,0.0,90,0.00,,,0.00,,Wunderground v.1.13,2013-02-13 10:08:00,
2013-02-13 02:15:00,35.0,32.6,30.23,NNE,22,0.0,1.0,91,0.00,,,-99.99,0,WeatherLink 5.7,2013-02-13 10:15:00,
2013-02-13 02:18:00,35.9,33.3,30.24,NNE,27,0.0,0.0,90,0.00,,,0.00,,Wunderground v.1.13,2013-02-13 10:18:00,
2013-02-13 02:28:00,35.9,33.5,30.24,NNE,27,0.0,0.0,91,0.00,,,0.00,,Wunderground v.1.13,2013-02-13 10:28:00,
2013-02-13 02:30:00,35.0,32.9,30.23,North,-999,0.0,0.0,92,0.00,,,-99.99,0,WeatherLink 5.7,2013-02-13 10:30:00,
2013-02-13 02:33:00,35.9,33.5,30.24,NNE,27,0.0,0.0,91,0.00,,,0.00,,Wunderground v.1.13,2013-02-13 10:33:00,
2013-02-13 02:43:00,35.6,33.2,30.24,NNE,27,0.0,0.0,91,0.00,,,0.00,,Wunderground v.1.13,2013-02-13 10:43:00,
2013-02-13 02:45:00,35.0,32.9,30.23,North,-999,0.0,0.0,92,0.00,,,-99.99,0,WeatherLink 5.7,2013-02-13 10:45:00,
2013-02-13 02:53:00,35.3,32.9,30.23,NNE,27,0.0,0.0,91,0.00,,,0.00,,Wunderground v.1.13,2013-02-13 10:53:00,
2013-02-13 02:58:00,35.3,32.9,30.23,NNE,27,0.0,0.0,91,0.00,,,0.00,,Wunderground v.1.13,2013-02-13 10:58:00,
2013-02-13 03:00:00,34.7,32.6,30.22,North,-999,0.0,0.0,92,0.00,,,-99.99,0,WeatherLink 5.7,2013-02-13 11:00:00,
2013-02-13 03:08:00,35.2,32.8,30.23,NNE,27,0.0,0.0,91,0.00,,,0.00,,Wunderground v.1.13,2013-02-13 11:08:00,
2013-02-13 03:15:00,34.4,32.3,30.23,North,-999,0.0,0.0,92,0.00,,,-99.99,0,WeatherLink 5.7,2013-02-13 11:15:00,
2013-02-13 03:18:00,35.0,32.6,30.23,NNE,27,0.0,0.0,91,0.00,,,0.00,,Wunderground v.1.13,2013-02-13 11:18:00,
2013-02-13 03:23:00,35.0,32.9,30.23,NNE,27,0.0,0.0,92,0.00,,,0.00,,Wunderground v.1.13,2013-02-13 11:23:00,
2013-02-13 03:30:00,34.1,32.0,30.23,North,-999,0.0,0.0,92,0.00,,,-99.99,0,WeatherLink 5.7,2013-02-13 11:30:00,
2013-02-13 03:33:00,35.0,32.9,30.23,NNE,27,0.0,0.0,92,0.00,,,0.00,,Wunderground v.1.13,2013-02-13 11:33:00,
2013-02-13 03:43:00,35.0,32.9,30.23,NNE,27,0.0,0.0,92,0.00,,,0.00,,Wunderground v.1.13,2013-02-13 11:43:00,
2013-02-13 03:45:00,33.7,31.6,30.23,North,-999,0.0,0.0,92,0.00,,,-99.99,0,WeatherLink 5.7,2013-02-13 11:45:00,
2013-02-13 03:53:00,34.9,32.8,30.23,NNE,27,0.0,0.0,92,0.00,,,0.00,,Wunderground v.1.13,2013-02-13 11:53:00,
2013-02-13 04:00:00,33.5,31.4,30.23,North,-999,0.0,0.0,92,0.00,,,-99.99,0,WeatherLink 5.7,2013-02-13 12:00:00,
2013-02-13 04:03:00,34.7,32.6,30.22,NNE,27,0.0,0.0,92,0.00,,,0.00,,Wunderground v.1.13,2013-02-13 12:03:00,
2013-02-13 04:08:00,34.6,32.5,30.22,NNE,27,0.0,0.0,92,0.00,,,0.00,,Wunderground v.1.13,2013-02-13 12:08:00,
2013-02-13 04:13:00,34.4,32.3,30.22,NNE,27,0.0,0.0,92,0.00,,,0.00,,Wunderground v.1.13,2013-02-13 12:13:00,
2013-02-13 04:15:00,33.2,31.1,30.23,North,-999,0.0,0.0,92,0.00,,,-99.99,0,WeatherLink 5.7,2013-02-13 12:15:00,
2013-02-13 04:23:00,34.3,32.2,30.23,NNE,27,0.0,0.0,92,0.00,,,0.00,,Wunderground v.1.13,2013-02-13 12:23:00,
2013-02-13 04:28:00,34.1,32.0,30.23,NNE,27,0.0,0.0,92,0.00,,,0.00,,Wunderground v.1.13,2013-02-13 12:28:00,
2013-02-13 04:30:00,33.1,31.0,30.23,North,-999,0.0,0.0,92,0.00,,,-99.99,0,WeatherLink 5.7,2013-02-13 12:30:00,
2013-02-13 04:33:00,34.0,31.9,30.23,NNE,27,0.0,0.0,92,0.00,,,0.00,,Wunderground v.1.13,2013-02-13 12:33:00,
2013-02-13 04:38:00,33.8,31.7,30.23,NNE,27,0.0,0.0,92,0.00,,,0.00,,Wunderground v.1.13,2013-02-13 12:38:00,
2013-02-13 04:45:00,33.2,31.4,30.23,North,-999,0.0,0.0,93,0.00,,,-99.99,0,WeatherLink 5.7,2013-02-13 12:45:00,
2013-02-13 04:48:00,33.7,31.6,30.23,NNE,27,0.0,0.0,92,0.00,,,0.00,,Wunderground v.1.13,2013-02-13 12:48:00,
2013-02-13 04:58:00,33.5,31.4,30.23,NNE,27,0.0,0.0,92,0.00,,,0.00,,Wunderground v.1.13,2013-02-13 12:58:00,
2013-02-13 05:00:00,33.2,31.4,30.23,North,-999,0.0,0.0,93,0.00,,,-99.99,0,WeatherLink 5.7,2013-02-13 13:00:00,
2013-02-13 05:03:00,33.4,31.3,30.23,NNE,27,0.0,0.0,92,0.00,,,0.00,,Wunderground v.1.13,2013-02-13 13:03:00,
2013-02-13 05:13:00,33.4,31.3,30.23,NNE,27,0.0,0.0,92,0.00,,,0.00,,Wunderground v.1.13,2013-02-13 13:13:00,
2013-02-13 05:15:00,33.1,31.3,30.23,North,-999,0.0,0.0,93,0.00,,,-99.99,0,WeatherLink 5.7,2013-02-13 13:15:00,
2013-02-13 05:18:00,33.2,31.1,30.23,NNE,27,0.0,0.0,92,0.00,,,0.00,,Wunderground v.1.13,2013-02-13 13:18:00,
2013-02-13 05:23:00,33.2,31.1,30.23,NNE,27,0.0,0.0,92,0.00,,,0.00,,Wunderground v.1.13,2013-02-13 13:23:00,
2013-02-13 05:28:00,33.1,31.0,30.23,NNE,27,0.0,0.0,92,0.00,,,0.00,,Wunderground v.1.13,2013-02-13 13:28:00,
2013-02-13 05:30:00,32.9,31.1,30.24,North,-999,0.0,0.0,93,0.00,,,-99.99,0,WeatherLink 5.7,2013-02-13 13:30:00,
2013-02-13 05:38:00,33.1,31.0,30.23,NNE,27,0.0,0.0,92,0.00,,,0.00,,Wunderground v.1.13,2013-02-13 13:38:00,
2013-02-13 05:45:00,33.1,31.3,30.23,North,-999,0.0,0.0,93,0.00,,,-99.99,0,WeatherLink 5.7,2013-02-13 13:45:00,
2013-02-13 05:48:00,33.2,31.4,30.23,NNE,27,0.0,0.0,93,0.00,,,0.00,,Wunderground v.1.13,2013-02-13 13:48:00,
2013-02-13 05:58:00,33.2,31.4,30.23,NNE,27,0.0,0.0,93,0.00,,,0.00,,Wunderground v.1.13,2013-02-13 13:58:00,
2013-02-13 06:00:00,33.2,31.7,30.24,NNE,22,0.0,1.0,94,0.00,,,-99.99,0,WeatherLink 5.7,2013-02-13 14:00:00,
2013-02-13 06:03:00,33.2,31.4,30.23,NNE,27,0.0,0.0,93,0.00,,,0.00,,Wunderground v.1.13,2013-02-13 14:03:00,
2013-02-13 06:13:00,33.2,31.4,30.23,NNE,27,0.0,0.0,93,0.00,,,0.00,,Wunderground v.1.13,2013-02-13 14:13:00,
2013-02-13 06:15:00,33.5,32.0,30.25,North,-999,0.0,0.0,94,0.00,,,-99.99,3,WeatherLink 5.7,2013-02-13 14:15:00,
2013-02-13 06:23:00,33.1,31.3,30.23,NNE,27,0.0,0.0,93,0.00,,,0.00,,Wunderground v.1.13,2013-02-13 14:23:00,
2013-02-13 06:30:00,33.5,32.0,30.25,North,-999,0.0,0.0,94,0.00,,,-99.99,9,WeatherLink 5.7,2013-02-13 14:30:00,
2013-02-13 06:33:00,32.9,31.1,30.23,NNE,27,0.0,0.0,93,0.00,,,0.00,,Wunderground v.1.13,2013-02-13 14:33:00,
2013-02-13 06:38:00,33.1,31.3,30.23,NNE,27,0.0,0.0,93,0.00,,,0.00,,Wunderground v.1.13,2013-02-13 14:38:00,
2013-02-13 06:45:00,33.7,32.2,30.25,North,-999,0.0,0.0,94,0.00,,,-99.99,14,WeatherLink 5.7,2013-02-13 14:45:00,
2013-02-13 06:48:00,33.1,31.3,30.23,NNE,27,0.0,0.0,93,0.00,,,0.00,,Wunderground v.1.13,2013-02-13 14:48:00,
2013-02-13 06:53:00,33.1,31.3,30.23,NNE,27,0.0,0.0,93,0.00,,,0.00,,Wunderground v.1.13,2013-02-13 14:53:00,
2013-02-13 06:58:00,33.2,31.7,30.23,NNE,27,0.0,0.0,94,0.00,,,0.00,,Wunderground v.1.13,2013-02-13 14:58:00,
2013-02-13 07:00:00,33.8,32.3,30.25,North,-999,0.0,0.0,94,0.00,,,-99.99,16,WeatherLink 5.7,2013-02-13 15:00:00,
2013-02-13 07:08:00,33.5,32.0,30.24,NNE,27,0.0,0.0,94,0.00,,,0.00,,Wunderground v.1.13,2013-02-13 15:08:00,
2013-02-13 07:13:00,33.5,32.0,30.24,NNE,27,0.0,0.0,94,0.00,,,0.00,,Wunderground v.1.13,2013-02-13 15:13:00,
2013-02-13 07:15:00,34.4,32.9,30.25,North,-999,0.0,0.0,94,0.00,,,-99.99,18,WeatherLink 5.7,2013-02-13 15:15:00,
2013-02-13 07:23:00,33.5,32.0,30.25,NNE,27,0.0,0.0,94,0.00,,,0.00,,Wunderground v.1.13,2013-02-13 15:23:00,
2013-02-13 07:30:00,35.5,34.2,30.25,NNE,22,0.0,1.0,95,0.00,,,-99.99,21,WeatherLink 5.7,2013-02-13 15:30:00,
2013-02-13 07:33:00,33.5,32.0,30.25,NNE,27,0.0,0.0,94,0.00,,,0.00,,Wunderground v.1.13,2013-02-13 15:33:00,
2013-02-13 07:38:00,33.5,32.0,30.25,NNE,27,0.0,0.0,94,0.00,,,0.00,,Wunderground v.1.13,2013-02-13 15:38:00,
2013-02-13 07:45:00,37.2,36.2,30.25,North,-999,0.0,0.0,96,0.00,,,-99.99,21,WeatherLink 5.7,2013-02-13 15:45:00,
2013-02-13 07:48:00,33.7,32.2,30.25,NNE,27,0.0,0.0,94,0.00,,,0.00,,Wunderground v.1.13,2013-02-13 15:48:00,
2013-02-13 07:53:00,33.7,32.2,30.25,NNE,27,0.0,0.0,94,0.00,,,0.00,,Wunderground v.1.13,2013-02-13 15:53:00,
2013-02-13 08:00:00,39.2,38.2,30.25,North,-999,0.0,0.0,96,0.00,,,-99.99,23,WeatherLink 5.7,2013-02-13 16:00:00,
2013-02-13 08:03:00,33.8,32.3,30.25,NNE,27,0.0,0.0,94,0.00,,,0.00,,Wunderground v.1.13,2013-02-13 16:03:00,
2013-02-13 08:08:00,34.0,32.5,30.25,NNE,27,0.0,0.0,94,0.00,,,0.00,,Wunderground v.1.13,2013-02-13 16:08:00,
2013-02-13 08:15:00,40.3,39.3,30.24,NNE,22,0.0,1.0,96,0.00,,,-99.99,25,WeatherLink 5.7,2013-02-13 16:15:00,
2013-02-13 08:18:00,34.6,33.3,30.25,NNE,27,0.0,0.0,95,0.00,,,0.00,,Wunderground v.1.13,2013-02-13 16:18:00,
2013-02-13 08:28:00,35.2,33.9,30.25,NNE,27,0.0,0.0,95,0.00,,,0.00,,Wunderground v.1.13,2013-02-13 16:28:00,
2013-02-13 08:30:00,41.9,40.8,30.24,North,-999,0.0,0.0,96,0.00,,,-99.99,26,WeatherLink 5.7,2013-02-13 16:30:00,
2013-02-13 08:33:00,35.9,34.9,30.25,NNE,27,0.0,0.0,96,0.00,,,0.00,,Wunderground v.1.13,2013-02-13 16:33:00,
2013-02-13 08:43:00,36.9,35.9,30.25,NNE,27,0.0,0.0,96,0.00,,,0.00,,Wunderground v.1.13,2013-02-13 16:43:00,
2013-02-13 08:45:00,43.2,41.9,30.25,North,-999,0.0,0.0,95,0.00,,,-99.99,32,WeatherLink 5.7,2013-02-13 16:45:00,
2013-02-13 08:53:00,38.2,37.2,30.25,NNE,27,0.0,0.0,96,0.00,,,0.00,,Wunderground v.1.13,2013-02-13 16:53:00,
2013-02-13 08:58:00,38.9,37.9,30.25,NNE,27,0.0,0.0,96,0.00,,,0.00,,Wunderground v.1.13,2013-02-13 16:58:00,
2013-02-13 09:00:00,45.1,42.1,30.25,NNE,22,0.0,1.0,89,0.00,,,-99.99,29,WeatherLink 5.7,2013-02-13 17:00:00,
2013-02-13 09:08:00,39.6,38.6,30.25,NNE,27,0.0,0.0,96,0.00,,,0.00,,Wunderground v.1.13,2013-02-13 17:08:00,
2013-02-13 09:13:00,40.1,39.1,30.25,NNE,27,0.0,0.0,96,0.00,,,0.00,,Wunderground v.1.13,2013-02-13 17:13:00,
2013-02-13 09:15:00,47.6,41.4,30.25,NNE,22,0.0,1.0,79,0.00,,,-99.99,37,WeatherLink 5.7,2013-02-13 17:15:00,
2013-02-13 09:23:00,41.3,40.2,30.24,NNE,27,0.0,0.0,96,0.00,,,0.00,,Wunderground v.1.13,2013-02-13 17:23:00,
2013-02-13 09:30:00,50.2,40.4,30.25,NNE,22,0.0,1.0,69,0.00,,,-99.99,60,WeatherLink 5.7,2013-02-13 17:30:00,
2013-02-13 09:33:00,42.1,41.0,30.24,NNE,27,0.0,0.0,96,0.00,,,0.00,,Wunderground v.1.13,2013-02-13 17:33:00,
2013-02-13 09:38:00,42.5,41.4,30.24,NNE,27,0.0,0.0,96,0.00,,,0.00,,Wunderground v.1.13,2013-02-13 17:38:00,
2013-02-13 09:45:00,53.6,38.3,30.24,NE,45,0.0,2.0,56,0.00,,,-99.99,87,WeatherLink 5.7,2013-02-13 17:45:00,
2013-02-13 09:48:00,43.5,42.2,30.25,NNE,27,0.0,0.0,95,0.00,,,0.00,,Wunderground v.1.13,2013-02-13 17:48:00,
2013-02-13 09:58:00,44.8,42.3,30.25,NNE,27,0.0,0.0,91,0.00,,,0.00,,Wunderground v.1.13,2013-02-13 17:58:00,
2013-02-13 10:00:00,55.9,37.0,30.24,East,90,0.0,2.0,49,0.00,,,-99.99,186,WeatherLink 5.7,2013-02-13 18:00:00,
2013-02-13 10:08:00,46.1,41.8,30.25,NNE,27,0.0,0.0,85,0.00,,,0.00,,Wunderground v.1.13,2013-02-13 18:08:00,
2013-02-13 10:15:00,57.5,36.9,30.23,East,90,0.0,3.0,46,0.00,,,-99.99,459,WeatherLink 5.7,2013-02-13 18:15:00,
2013-02-13 10:18:00,48.0,41.1,30.25,NNE,27,0.0,0.0,77,0.00,,,0.00,,Wunderground v.1.13,2013-02-13 18:18:00,
2013-02-13 10:28:00,49.8,41.5,30.25,NNE,28,0.0,1.0,73,0.00,,,0.00,,Wunderground v.1.13,2013-02-13 18:28:00,
2013-02-13 10:30:00,58.6,36.2,30.23,NE,45,1.0,3.0,43,0.00,,,-99.99,405,WeatherLink 5.7,2013-02-13 18:30:00,
2013-02-13 10:33:00,50.7,40.5,30.25,NNE,28,0.0,0.0,68,0.00,,,0.00,,Wunderground v.1.13,2013-02-13 18:33:00,
2013-02-13 10:38:00,51.9,38.4,30.25,NE,42,0.0,0.0,60,0.00,,,0.00,,Wunderground v.1.13,2013-02-13 18:38:00,
2013-02-13 10:45:00,59.5,35.1,30.22,East,90,0.0,3.0,40,0.00,,,-99.99,567,WeatherLink 5.7,2013-02-13 18:45:00,
2013-02-13 10:48:00,54.1,37.8,30.24,East,93,0.0,0.0,54,0.00,,,0.00,,Wunderground v.1.13,2013-02-13 18:48:00,
2013-02-13 10:58:00,55.6,37.2,30.24,ENE,71,1.0,1.0,50,0.00,,,0.00,,Wunderground v.1.13,2013-02-13 18:58:00,
2013-02-13 11:00:00,59.9,35.5,30.21,NNW,337,0.0,3.0,40,0.00,,,-99.99,488,WeatherLink 5.7,2013-02-13 19:00:00,
2013-02-13 11:08:00,56.7,37.2,30.24,East,96,0.0,2.0,48,0.00,,,0.00,,Wunderground v.1.13,2013-02-13 19:08:00,
2013-02-13 11:15:00,60.5,34.7,30.20,NNW,337,1.0,3.0,38,0.00,,,-99.99,113,WeatherLink 5.7,2013-02-13 19:15:00,
2013-02-13 11:18:00,57.6,36.4,30.23,ENE,75,1.0,1.0,45,0.00,,,0.00,,Wunderground v.1.13,2013-02-13 19:18:00,
2013-02-13 11:23:00,58.0,35.0,30.23,NE,38,1.0,1.0,42,0.00,,,0.00,,Wunderground v.1.13,2013-02-13 19:23:00,
2013-02-13 11:28:00,58.4,36.0,30.23,NNE,17,0.0,0.0,43,0.00,,,0.00,,Wunderground v.1.13,2013-02-13 19:28:00,
2013-02-13 11:30:00,61.2,36.7,30.20,East,90,1.0,4.0,40,0.00,,,-99.99,391,WeatherLink 5.7,2013-02-13 19:30:00,
2013-02-13 11:38:00,59.0,35.3,30.23,East,90,0.0,0.0,41,0.00,,,0.00,,Wunderground v.1.13,2013-02-13 19:38:00,
2013-02-13 11:43:00,59.3,35.0,30.23,North,355,0.0,1.0,40,0.00,,,0.00,,Wunderground v.1.13,2013-02-13 19:43:00,
2013-02-13 11:45:00,61.8,34.5,30.19,ENE,67,1.0,5.0,36,0.00,,,-99.99,363,WeatherLink 5.7,2013-02-13 19:45:00,
2013-02-13 11:48:00,59.5,35.8,30.22,NE,51,0.0,1.0,41,0.00,,,0.00,,Wunderground v.1.13,2013-02-13 19:48:00,
2013-02-13 11:58:00,59.8,34.8,30.22,NNW,342,1.0,1.0,39,0.00,,,0.00,,Wunderground v.1.13,2013-02-13 19:58:00,
2013-02-13 12:00:00,62.4,35.8,30.18,NW,315,0.0,3.0,37,0.00,,,-99.99,181,WeatherLink 5.7,2013-02-13 20:00:00,
2013-02-13 12:08:00,60.1,35.0,30.21,NNW,329,1.0,1.0,39,0.00,,,0.00,,Wunderground v.1.13,2013-02-13 20:08:00,
2013-02-13 12:13:00,60.4,35.3,30.21,NNW,327,1.0,1.0,39,0.00,,,0.00,,Wunderground v.1.13,2013-02-13 20:13:00,
2013-02-13 12:15:00,63.2,35.1,30.17,ENE,67,1.0,4.0,35,0.00,,,-99.99,467,WeatherLink 5.7,2013-02-13 20:15:00,
2013-02-13 12:23:00,60.9,35.1,30.20,East,87,1.0,1.0,38,0.00,,,0.00,,Wunderground v.1.13,2013-02-13 20:23:00,
2013-02-13 12:28:00,61.0,35.2,30.20,NW,309,1.0,1.0,38,0.00,,,0.00,,Wunderground v.1.13,2013-02-13 20:28:00,
2013-02-13 12:30:00,63.4,35.2,30.17,ENE,67,1.0,3.0,35,0.00,,,-99.99,225,WeatherLink 5.7,2013-02-13 20:30:00,
2013-02-13 12:33:00,61.3,34.8,30.20,ENE,63,1.0,1.0,37,0.00,,,0.00,,Wunderground v.1.13,2013-02-13 20:33:00,
2013-02-13 12:43:00,61.6,35.1,30.20,East,80,1.0,1.0,37,0.00,,,0.00,,Wunderground v.1.13,2013-02-13 20:43:00,
2013-02-13 12:45:00,63.4,34.5,30.16,East,90,1.0,4.0,34,0.00,,,-99.99,37,WeatherLink 5.7,2013-02-13 20:45:00,
2013-02-13 12:53:00,62.0,35.4,30.19,NW,323,0.0,1.0,37,0.00,,,0.00,,Wunderground v.1.13,2013-02-13 20:53:00,
2013-02-13 12:58:00,62.3,35.0,30.19,NW,317,0.0,0.0,36,0.00,,,0.00,,Wunderground v.1.13,2013-02-13 20:58:00,
2013-02-13 13:00:00,63.5,36.0,30.15,East,90,0.0,3.0,36,0.00,,,-99.99,45,WeatherLink 5.7,2013-02-13 21:00:00,
2013-02-13 13:03:00,62.6,35.3,30.18,East,89,0.0,0.0,36,0.00,,,0.00,,Wunderground v.1.13,2013-02-13 21:03:00,
2013-02-13 13:08:00,62.9,36.2,30.18,NNW,329,1.0,1.0,37,0.00,,,0.00,,Wunderground v.1.13,2013-02-13 21:08:00,
2013-02-13 13:15:00,63.5,35.3,30.14,ENE,67,1.0,3.0,35,0.00,,,-99.99,101,WeatherLink 5.7,2013-02-13 21:15:00,
2013-02-13 13:18:00,63.2,35.1,30.17,East,96,1.0,1.0,35,0.00,,,0.00,,Wunderground v.1.13,2013-02-13 21:18:00,
2013-02-13 13:28:00,63.4,34.5,30.17,ENE,67,1.0,2.0,34,0.00,,,0.00,,Wunderground v.1.13,2013-02-13 21:28:00,
2013-02-13 13:30:00,63.9,36.4,30.14,East,90,1.0,5.0,36,0.00,,,-99.99,65,WeatherLink 5.7,2013-02-13 21:30:00,
2013-02-13 13:33:00,63.4,35.2,30.17,NNW,332,1.0,1.0,35,0.00,,,0.00,,Wunderground v.1.13,2013-02-13 21:33:00,
2013-02-13 13:43:00,63.4,35.2,30.17,NE,53,1.0,1.0,35,0.00,,,0.00,,Wunderground v.1.13,2013-02-13 21:43:00,
2013-02-13 13:45:00,63.9,35.7,30.13,East,90,1.0,4.0,35,0.00,,,-99.99,113,WeatherLink 5.7,2013-02-13 21:45:00,
2013-02-13 13:48:00,63.4,34.5,30.16,East,79,1.0,1.0,34,0.00,,,0.00,,Wunderground v.1.13,2013-02-13 21:48:00,
2013-02-13 13:58:00,63.4,36.0,30.16,ENE,65,0.0,0.0,36,0.00,,,0.00,,Wunderground v.1.13,2013-02-13 21:58:00,
2013-02-13 14:00:00,64.2,36.7,30.13,East,90,0.0,3.0,36,0.00,,,-99.99,34,WeatherLink 5.7,2013-02-13 22:00:00,
2013-02-13 14:08:00,63.7,35.5,30.15,NE,47,1.0,1.0,35,0.00,,,0.00,,Wunderground v.1.13,2013-02-13 22:08:00,
2013-02-13 14:13:00,63.7,34.8,30.15,ENE,65,1.0,1.0,34,0.00,,,0.00,,Wunderground v.1.13,2013-02-13 22:13:00,
2013-02-13 14:15:00,64.2,36.0,30.13,NW,315,1.0,4.0,35,0.00,,,-99.99,32,WeatherLink 5.7,2013-02-13 22:15:00,
2013-02-13 14:23:00,63.7,35.5,30.14,ENE,76,1.0,1.0,35,0.00,,,0.00,,Wunderground v.1.13,2013-02-13 22:23:00,
2013-02-13 14:28:00,63.9,36.4,30.14,East,89,1.0,1.0,36,0.00,,,0.00,,Wunderground v.1.13,2013-02-13 22:28:00,
2013-02-13 14:30:00,64.7,34.1,30.13,East,90,1.0,4.0,32,0.00,,,-99.99,30,WeatherLink 5.7,2013-02-13 22:30:00,
2013-02-13 14:38:00,63.9,35.7,30.14,East,80,1.0,1.0,35,0.00,,,0.00,,Wunderground v.1.13,2013-02-13 22:38:00,
2013-02-13 14:45:00,64.5,36.9,30.13,NNW,337,1.0,4.0,36,0.00,,,-99.99,30,WeatherLink 5.7,2013-02-13 22:45:00,
2013-02-13 14:48:00,63.9,35.7,30.13,WNW,302,0.0,0.0,35,0.00,,,0.00,,Wunderground v.1.13,2013-02-13 22:48:00,
2013-02-13 14:58:00,64.2,36.0,30.13,North,11,1.0,1.0,35,0.00,,,0.00,,Wunderground v.1.13,2013-02-13 22:58:00,
2013-02-13 15:00:00,64.2,36.0,30.13,NNW,337,0.0,5.0,35,0.00,,,-99.99,28,WeatherLink 5.7,2013-02-13 23:00:00,
2013-02-13 15:03:00,64.2,36.0,30.13,ENE,72,0.0,0.0,35,0.00,,,0.00,,Wunderground v.1.13,2013-02-13 23:03:00,
2013-02-13 15:13:00,64.2,36.7,30.13,NW,321,1.0,1.0,36,0.00,,,0.00,,Wunderground v.1.13,2013-02-13 23:13:00,
2013-02-13 15:15:00,63.5,38.1,30.12,NW,315,0.0,3.0,39,0.00,,,-99.99,26,WeatherLink 5.7,2013-02-13 23:15:00,
2013-02-13 15:23:00,64.5,34.0,30.13,ESE,103,1.0,1.0,32,0.00,,,0.00,,Wunderground v.1.13,2013-02-13 23:23:00,
2013-02-13 15:30:00,63.1,39.0,30.12,NW,315,0.0,4.0,41,0.00,,,-99.99,29,WeatherLink 5.7,2013-02-13 23:30:00,
2013-02-13 15:33:00,64.7,34.9,30.13,NNW,347,1.0,1.0,33,0.00,,,0.00,,Wunderground v.1.13,2013-02-13 23:33:00,
2013-02-13 15:43:00,64.7,36.4,30.13,WNW,292,1.0,1.0,35,0.00,,,0.00,,Wunderground v.1.13,2013-02-13 23:43:00,
2013-02-13 15:45:00,62.6,40.9,30.12,NW,315,0.0,4.0,45,0.00,,,-99.99,20,WeatherLink 5.7,2013-02-13 23:45:00,
2013-02-13 15:48:00,64.5,36.2,30.13,WSW,239,0.0,3.0,35,0.00,,,0.00,,Wunderground v.1.13,2013-02-13 23:48:00,
2013-02-13 15:58:00,64.2,36.7,30.13,NNW,337,1.0,1.0,36,0.00,,,0.00,,Wunderground v.1.13,2013-02-13 23:58:00,
2013-02-13 16:00:00,61.8,40.2,30.12,NW,315,0.0,4.0,45,0.00,,,-99.99,16,WeatherLink 5.7,2013-02-14 00:00:00,
2013-02-13 16:08:00,63.9,37.1,30.13,WSW,246,0.0,3.0,37,0.00,,,0.00,,Wunderground v.1.13,2013-02-14 00:08:00,
2013-02-13 16:15:00,60.9,40.5,30.12,NW,315,0.0,3.0,47,0.00,,,-99.99,13,WeatherLink 5.7,2013-02-14 00:15:00,
2013-02-13 16:18:00,63.5,38.1,30.12,NNW,339,1.0,1.0,39,0.00,,,0.00,,Wunderground v.1.13,2013-02-14 00:18:00,
2013-02-13 16:28:00,63.2,38.5,30.12,North,360,0.0,2.0,40,0.00,,,0.00,,Wunderground v.1.13,2013-02-14 00:28:00,
2013-02-13 16:30:00,59.6,38.8,30.12,NW,315,0.0,2.0,46,0.00,,,-99.99,10,WeatherLink 5.7,2013-02-14 00:30:00,
2013-02-13 16:33:00,63.1,39.0,30.12,WNW,291,0.0,0.0,41,0.00,,,0.00,,Wunderground v.1.13,2013-02-14 00:33:00,
2013-02-13 16:38:00,62.9,40.0,30.12,NW,316,0.0,0.0,43,0.00,,,0.00,,Wunderground v.1.13,2013-02-14 00:38:00,
2013-02-13 16:45:00,58.1,39.5,30.12,NW,315,0.0,1.0,50,0.00,,,-99.99,4,WeatherLink 5.7,2013-02-14 00:45:00,
2013-02-13 16:53:00,62.1,40.5,30.12,WNW,288,0.0,0.0,45,0.00,,,0.00,,Wunderground v.1.13,2013-02-14 00:53:00,
2013-02-13 16:58:00,62.0,40.4,30.12,WNW,300,0.0,0.0,45,0.00,,,0.00,,Wunderground v.1.13,2013-02-14 00:58:00,
2013-02-13 17:00:00,56.2,38.8,30.12,NW,315,0.0,1.0,52,0.00,,,-99.99,0,WeatherLink 5.7,2013-02-14 01:00:00,
2013-02-13 17:08:00,61.5,41.1,30.12,NW,316,0.0,0.0,47,0.00,,,0.00,,Wunderground v.1.13,2013-02-14 01:08:00,
2013-02-13 17:15:00,54.4,38.1,30.12,NW,315,0.0,2.0,54,0.00,,,-99.99,0,WeatherLink 5.7,2013-02-14 01:15:00,
2013-02-13 17:18:00,60.7,39.8,30.12,NW,315,0.0,2.0,46,0.00,,,0.00,,Wunderground v.1.13,2013-02-14 01:18:00,
2013-02-13 17:23:00,60.2,39.3,30.12,NW,315,0.0,1.0,46,0.00,,,0.00,,Wunderground v.1.13,2013-02-14 01:23:00,
2013-02-13 17:30:00,53.5,38.2,30.12,NW,315,0.0,2.0,56,0.00,,,-99.99,0,WeatherLink 5.7,2013-02-14 01:30:00,
2013-02-13 17:33:00,59.5,38.7,30.12,NW,315,0.0,0.0,46,0.00,,,0.00,,Wunderground v.1.13,2013-02-14 01:33:00,
2013-02-13 17:38:00,59.0,39.9,30.12,NW,315,0.0,1.0,49,0.00,,,0.00,,Wunderground v.1.13,2013-02-14 01:38:00,
2013-02-13 17:43:00,58.4,39.8,30.12,NW,315,0.0,0.0,50,0.00,,,0.00,,Wunderground v.1.13,2013-02-14 01:43:00,
2013-02-13 17:45:00,52.8,38.0,30.12,NW,315,0.0,1.0,57,0.00,,,-99.99,0,WeatherLink 5.7,2013-02-14 01:45:00,
2013-02-13 17:53:00,57.2,39.2,30.12,NW,315,0.0,0.0,51,0.00,,,0.00,,Wunderground v.1.13,2013-02-14 01:53:00,
2013-02-13 18:00:00,52.2,37.9,30.12,NW,315,0.0,1.0,58,0.00,,,-99.99,0,WeatherLink 5.7,2013-02-14 02:00:00,
2013-02-13 18:03:00,55.9,38.5,30.12,NW,315,0.0,0.0,52,0.00,,,0.00,,Wunderground v.1.13,2013-02-14 02:03:00,
2013-02-13 18:08:00,55.1,38.3,30.12,NW,315,0.0,0.0,53,0.00,,,0.00,,Wunderground v.1.13,2013-02-14 02:08:00,
2013-02-13 18:15:00,51.1,38.5,30.12,North,-999,0.0,0.0,62,0.00,,,-99.99,0,WeatherLink 5.7,2013-02-14 02:15:00,
2013-02-13 18:18:00,54.2,37.9,30.12,NW,315,0.0,0.0,54,0.00,,,0.00,,Wunderground v.1.13,2013-02-14 02:18:00,
2013-02-13 18:28:00,53.6,38.3,30.12,NW,315,0.0,0.0,56,0.00,,,0.00,,Wunderground v.1.13,2013-02-14 02:28:00,
2013-02-13 18:30:00,49.8,38.5,30.12,North,-999,0.0,0.0,65,0.00,,,-99.99,0,WeatherLink 5.7,2013-02-14 02:30:00,
2013-02-13 18:33:00,53.2,38.4,30.12,NW,315,0.0,0.0,57,0.00,,,0.00,,Wunderground v.1.13,2013-02-14 02:33:00,
2013-02-13 18:38:00,52.9,38.1,30.12,NW,315,0.0,0.0,57,0.00,,,0.00,,Wunderground v.1.13,2013-02-14 02:38:00,
2013-02-13 18:45:00,48.6,38.1,30.13,North,-999,0.0,0.0,67,0.00,,,-99.99,0,WeatherLink 5.7,2013-02-14 02:45:00,
2013-02-13 18:48:00,52.8,38.0,30.12,NW,315,0.0,0.0,57,0.00,,,0.00,,Wunderground v.1.13,2013-02-14 02:48:00,
2013-02-13 18:53:00,52.6,38.2,30.12,NW,315,0.0,0.0,58,0.00,,,0.00,,Wunderground v.1.13,2013-02-14 02:53:00,
2013-02-13 19:00:00,47.7,38.0,30.13,North,-999,0.0,0.0,69,0.00,,,-99.99,0,WeatherLink 5.7,2013-02-14 03:00:00,
2013-02-13 19:03:00,52.0,38.1,30.12,NW,315,0.0,0.0,59,0.00,,,0.00,,Wunderground v.1.13,2013-02-14 03:03:00,
2013-02-13 19:08:00,51.6,38.2,30.12,NW,315,0.0,0.0,60,0.00,,,0.00,,Wunderground v.1.13,2013-02-14 03:08:00,
2013-02-13 19:13:00,51.3,38.7,30.12,NW,315,0.0,0.0,62,0.00,,,0.00,,Wunderground v.1.13,2013-02-14 03:13:00,
2013-02-13 19:15:00,46.8,37.9,30.13,North,-999,0.0,0.0,71,0.00,,,-99.99,0,WeatherLink 5.7,2013-02-14 03:15:00,
2013-02-13 19:23:00,50.5,38.8,30.12,NW,315,0.0,0.0,64,0.00,,,0.00,,Wunderground v.1.13,2013-02-14 03:23:00,
2013-02-13 19:30:00,46.1,37.6,30.13,NW,315,0.0,1.0,72,0.00,,,-99.99,0,WeatherLink 5.7,2013-02-14 03:30:00,
2013-02-13 19:33:00,49.6,38.3,30.12,NW,315,0.0,0.0,65,0.00,,,0.00,,Wunderground v.1.13,2013-02-14 03:33:00,
2013-02-13 19:38:00,49.2,37.9,30.12,NW,315,0.0,0.0,65,0.00,,,0.00,,Wunderground v.1.13,2013-02-14 03:38:00,
2013-02-13 19:45:00,45.8,37.6,30.14,NW,315,0.0,1.0,73,0.00,,,-99.99,0,WeatherLink 5.7,2013-02-14 03:45:00,
2013-02-13 19:48:00,48.5,38.0,30.13,NW,315,0.0,0.0,67,0.00,,,0.00,,Wunderground v.1.13,2013-02-14 03:48:00,
2013-02-13 19:58:00,47.9,38.2,30.13,NW,315,0.0,0.0,69,0.00,,,0.00,,Wunderground v.1.13,2013-02-14 03:58:00,
2013-02-13 20:00:00,45.2,37.1,30.14,North,-999,0.0,0.0,73,0.00,,,-99.99,0,WeatherLink 5.7,2013-02-14 04:00:00,
2013-02-13 20:03:00,47.6,37.9,30.13,NW,315,0.0,0.0,69,0.00,,,0.00,,Wunderground v.1.13,2013-02-14 04:03:00,
2013-02-13 20:13:00,47.0,37.7,30.13,NW,315,0.0,0.0,70,0.00,,,0.00,,Wunderground v.1.13,2013-02-14 04:13:00,
2013-02-13 20:15:00,44.6,37.2,30.13,NW,315,0.0,1.0,75,0.00,,,-99.99,0,WeatherLink 5.7,2013-02-14 04:15:00,
2013-02-13 20:18:00,46.7,37.4,30.13,NW,315,0.0,0.0,70,0.00,,,0.00,,Wunderground v.1.13,2013-02-14 04:18:00,
2013-02-13 20:23:00,46.5,37.6,30.13,NW,315,0.0,0.0,71,0.00,,,0.00,,Wunderground v.1.13,2013-02-14 04:23:00,
2013-02-13 20:30:00,44.1,37.3,30.14,North,-999,0.0,0.0,77,0.00,,,-99.99,0,WeatherLink 5.7,2013-02-14 04:30:00,
2013-02-13 20:33:00,46.1,37.6,30.13,NW,315,0.0,0.0,72,0.00,,,0.00,,Wunderground v.1.13,2013-02-14 04:33:00,
2013-02-13 20:38:00,46.0,37.8,30.13,NW,315,0.0,0.0,73,0.00,,,0.00,,Wunderground v.1.13,2013-02-14 04:38:00,
2013-02-13 20:45:00,43.6,36.9,30.14,North,-999,0.0,0.0,77,0.00,,,-99.99,0,WeatherLink 5.7,2013-02-14 04:45:00,
2013-02-13 20:48:00,45.7,37.5,30.14,NW,315,0.0,0.0,73,0.00,,,0.00,,Wunderground v.1.13,2013-02-14 04:48:00,
2013-02-13 20:58:00,45.2,37.1,30.14,NW,315,0.0,0.0,73,0.00,,,0.00,,Wunderground v.1.13,2013-02-14 04:58:00,
2013-02-13 21:00:00,43.2,37.1,30.14,North,-999,0.0,0.0,79,0.00,,,-99.99,0,WeatherLink 5.7,2013-02-14 05:00:00,
2013-02-13 21:03:00,45.1,37.0,30.14,NW,315,0.0,0.0,73,0.00,,,0.00,,Wunderground v.1.13,2013-02-14 05:03:00,
2013-02-13 21:08:00,44.8,37.4,30.14,NW,315,0.0,0.0,75,0.00,,,0.00,,Wunderground v.1.13,2013-02-14 05:08:00,
2013-02-13 21:15:00,42.9,37.2,30.14,NW,315,0.0,2.0,80,0.00,,,-99.99,0,WeatherLink 5.7,2013-02-14 05:15:00,
2013-02-13 21:18:00,44.5,37.4,30.13,NW,315,0.0,0.0,76,0.00,,,0.00,,Wunderground v.1.13,2013-02-14 05:18:00,
2013-02-13 21:28:00,44.2,37.4,30.13,NW,315,0.0,0.0,77,0.00,,,0.00,,Wunderground v.1.13,2013-02-14 05:28:00,
2013-02-13 21:30:00,42.6,37.2,30.14,North,-999,0.0,0.0,81,0.00,,,-99.99,0,WeatherLink 5.7,2013-02-14 05:30:00,
2013-02-13 21:38:00,43.9,37.2,30.14,NW,315,0.0,0.0,77,0.00,,,0.00,,Wunderground v.1.13,2013-02-14 05:38:00,
2013-02-13 21:43:00,43.8,37.1,30.14,NW,315,0.0,0.0,77,0.00,,,0.00,,Wunderground v.1.13,2013-02-14 05:43:00,
2013-02-13 21:45:00,42.2,36.8,30.14,NW,315,0.0,1.0,81,0.00,,,-99.99,0,WeatherLink 5.7,2013-02-14 05:45:00,
2013-02-13 21:53:00,43.3,36.9,30.14,NW,315,0.0,0.0,78,0.00,,,0.00,,Wunderground v.1.13,2013-02-14 05:53:00,
2013-02-13 21:58:00,43.2,36.8,30.14,NW,315,0.0,0.0,78,0.00,,,0.00,,Wunderground v.1.13,2013-02-14 05:58:00,
2013-02-13 22:00:00,41.8,36.7,30.15,North,-999,0.0,0.0,82,0.00,,,-99.99,0,WeatherLink 5.7,2013-02-14 06:00:00,
2013-02-13 22:03:00,43.2,37.1,30.14,NW,315,0.0,0.0,79,0.00,,,0.00,,Wunderground v.1.13,2013-02-14 06:03:00,
2013-02-13 22:13:00,42.9,37.2,30.14,NW,315,0.0,0.0,80,0.00,,,0.00,,Wunderground v.1.13,2013-02-14 06:13:00,
2013-02-13 22:15:00,41.5,36.4,30.14,North,-999,0.0,0.0,82,0.00,,,-99.99,0,WeatherLink 5.7,2013-02-14 06:15:00,
2013-02-13 22:18:00,42.8,37.1,30.14,NW,315,0.0,0.0,80,0.00,,,0.00,,Wunderground v.1.13,2013-02-14 06:18:00,
2013-02-13 22:28:00,42.6,36.9,30.14,NW,315,0.0,0.0,80,0.00,,,0.00,,Wunderground v.1.13,2013-02-14 06:28:00,
2013-02-13 22:30:00,41.1,36.3,30.14,NW,315,0.0,1.0,83,0.00,,,-99.99,0,WeatherLink 5.7,2013-02-14 06:30:00,
2013-02-13 22:38:00,42.5,37.1,30.14,NW,315,0.0,0.0,81,0.00,,,0.00,,Wunderground v.1.13,2013-02-14 06:38:00,
2013-02-13 22:45:00,40.8,36.3,30.13,North,-999,0.0,0.0,84,0.00,,,-99.99,0,WeatherLink 5.7,2013-02-14 06:45:00,
2013-02-13 22:48:00,42.2,36.8,30.14,NW,315,0.0,0.0,81,0.00,,,0.00,,Wunderground v.1.13,2013-02-14 06:48:00,
2013-02-13 22:53:00,42.1,36.7,30.14,NW,315,0.0,0.0,81,0.00,,,0.00,,Wunderground v.1.13,2013-02-14 06:53:00,
2013-02-13 23:00:00,40.3,35.8,30.14,North,-999,0.0,0.0,84,0.00,,,-99.99,0,WeatherLink 5.7,2013-02-14 07:00:00,
2013-02-13 23:03:00,41.8,36.7,30.15,NW,315,0.0,0.0,82,0.00,,,0.00,,Wunderground v.1.13,2013-02-14 07:03:00,
2013-02-13 23:08:00,41.6,36.5,30.15,NW,315,0.0,0.0,82,0.00,,,0.00,,Wunderground v.1.13,2013-02-14 07:08:00,
2013-02-13 23:15:00,39.9,35.5,30.13,North,-999,0.0,0.0,84,0.00,,,-99.99,0,WeatherLink 5.7,2013-02-14 07:15:00,
2013-02-13 23:18:00,41.3,36.5,30.14,NW,315,0.0,0.0,83,0.00,,,0.00,,Wunderground v.1.13,2013-02-14 07:18:00,
2013-02-13 23:28:00,41.1,36.3,30.14,NW,315,0.0,0.0,83,0.00,,,0.00,,Wunderground v.1.13,2013-02-14 07:28:00,
2013-02-13 23:30:00,39.5,35.4,30.13,NW,315,0.0,1.0,85,0.00,,,-99.99,0,WeatherLink 5.7,2013-02-14 07:30:00,
2013-02-13 23:33:00,41.1,36.3,30.14,NW,315,0.0,0.0,83,0.00,,,0.00,,Wunderground v.1.13,2013-02-14 07:33:00,
2013-02-13 23:38:00,40.9,36.1,30.14,NW,315,0.0,0.0,83,0.00,,,0.00,,Wunderground v.1.13,2013-02-14 07:38:00,
2013-02-13 23:45:00,39.2,35.4,30.14,North,-999,0.0,0.0,86,0.00,,,-99.99,0,WeatherLink 5.7,2013-02-14 07:45:00,
2013-02-13 23:48:00,40.6,36.1,30.13,NW,315,0.0,0.0,84,0.00,,,0.00,,Wunderground v.1.13,2013-02-14 07:48:00,
2013-02-13 23:53:00,40.6,36.1,30.13,NW,315,0.0,0.0,84,0.00,,,0.00,,Wunderground v.1.13,2013-02-14 07:53:00,